Aviation Digital Data Service (ADDS)

Output produced by METARs form (1549 UTC 21 December 2014)
found at http://aviationweather.gov/adds/metars/
 
KCLT 211458Z 2115/2212 03005KT P6SM OVC022 
     FM211700 05005KT P6SM SCT026 OVC040 
     FM220200 07007KT P6SM OVC050 
     FM220400 05008KT P6SM -RA OVC018 
     FM220900 04008KT P6SM -RA OVC006